Time;durP1;ratioP1;P1;durP2;ratioP2;P2;SDS_P1;SDS_P2;PMS_P1;PMS_P2;Temp;Humidity;BMP_temperature;BMP_pressure;BME280_temperature;BME280_humidity;BME280_pressure;Samples;Min_cycle;Max_cycle;Signal;HPM_P1;HPM_P2
2019/11/26 00:00:47;;;;;;;0;0;;;;;;;0;0;0;;;;
2019/11/26 00:01:48;;;;;;;0;0;;;;;;;0;0;0;;;;
2019/11/26 00:02:49;;;;;;;0;0;;;;;;;0;0;0;;;;
2019/11/26 00:03:51;;;;;;;0;0;;;;;;;0;0;0;;;;
2019/11/26 00:04:52;;;;;;;0;0;;;;;;;0;0;0;;;;
2019/11/26 00:05:53;;;;;;;0;0;;;;;;;0;0;0;;;;
2019/11/26 00:06:54;;;;;;;0;0;;;;;;;0;0;0;;;;
2019/11/26 00:08:59;;;;;;;0;0;;;;;;;0;0;0;;;;
2019/11/26 00:11:07;;;;;;;0;0;;;;;;;0;0;0;;;;
2019/11/26 00:12:20;;;;;;;0;0;;;;;;;0;0;0;;;;
2019/11/26 00:13:21;;;;;;;0;0;;;;;;;0;0;0;;;;
2019/11/26 00:20:36;;;;;;;0;0;;;;;;;0;0;0;;;;
2019/11/26 00:24:53;;;;;;;49.75;28.3;;;;;;;4.38;100;94663.5;;;;
2019/11/26 00:25:54;;;;;;;49.75;28.3;;;;;;;4.38;100;94663.5;;;;
2019/11/26 00:26:56;;;;;;;49.75;28.3;;;;;;;4.38;100;94663.5;;;;
2019/11/26 00:29:00;;;;;;;49.75;28.3;;;;;;;4.38;100;94663.5;;;;
2019/11/26 00:30:02;;;;;;;49.75;28.3;;;;;;;4.38;100;94663.5;;;;
2019/11/26 00:35:10;;;;;;;0;0;;;;;;;0;0;0;;;;
2019/11/26 00:36:38;;;;;;;0;0;;;;;;;0;0;0;;;;
2019/11/26 00:38:16;;;;;;;0;0;;;;;;;0;0;0;;;;
2019/11/26 00:39:17;;;;;;;0;0;;;;;;;0;0;0;;;;
2019/11/26 00:40:19;;;;;;;0;0;;;;;;;0;0;0;;;;
2019/11/26 00:43:46;;;;;;;0;0;;;;;;;0;0;0;;;;
2019/11/26 00:48:55;;;;;;;0;0;;;;;;;0;0;0;;;;
2019/11/26 00:58:10;;;;;;;0;0;;;;;;;0;0;0;;;;
2019/11/26 00:59:14;;;;;;;0;0;;;;;;;0;0;0;;;;
2019/11/26 01:00:16;;;;;;;0;0;;;;;;;0;0;0;;;;
2019/11/26 01:01:17;;;;;;;0;0;;;;;;;0;0;0;;;;
2019/11/26 01:02:19;;;;;;;0;0;;;;;;;0;0;0;;;;
2019/11/26 01:03:24;;;;;;;0;0;;;;;;;0;0;0;;;;
2019/11/26 01:04:25;;;;;;;0;0;;;;;;;0;0;0;;;;
2019/11/26 01:06:02;;;;;;;0;0;;;;;;;0;0;0;;;;
2019/11/26 01:07:03;;;;;;;0;0;;;;;;;0;0;0;;;;
2019/11/26 01:09:15;;;;;;;0;0;;;;;;;0;0;0;;;;
2019/11/26 01:10:16;;;;;;;0;0;;;;;;;0;0;0;;;;
2019/11/26 01:15:25;;;;;;;0;0;;;;;;;0;0;0;;;;
2019/11/26 01:16:26;;;;;;;0;0;;;;;;;0;0;0;;;;
2019/11/26 01:17:27;;;;;;;0;0;;;;;;;0;0;0;;;;
2019/11/26 01:19:30;;;;;;;0;0;;;;;;;0;0;0;;;;
2019/11/26 01:21:12;;;;;;;0;0;;;;;;;0;0;0;;;;
2019/11/26 01:26:38;;;;;;;0;0;;;;;;;0;0;0;;;;
2019/11/26 01:27:41;;;;;;;0;0;;;;;;;0;0;0;;;;
2019/11/26 01:28:45;;;;;;;0;0;;;;;;;0;0;0;;;;
2019/11/26 01:29:46;;;;;;;0;0;;;;;;;0;0;0;;;;
2019/11/26 01:30:48;;;;;;;0;0;;;;;;;0;0;0;;;;
2019/11/26 01:31:49;;;;;;;0;0;;;;;;;0;0;0;;;;
2019/11/26 01:32:50;;;;;;;0;0;;;;;;;0;0;0;;;;
2019/11/26 01:33:51;;;;;;;55.05;30.15;;;;;;;4.47;100;94639.09;;;;
2019/11/26 01:35:55;;;;;;;55.05;30.15;;;;;;;4.47;100;94639.09;;;;
2019/11/26 01:38:57;;;;;;;55.05;30.15;;;;;;;4.47;100;94639.09;;;;
2019/11/26 01:41:07;;;;;;;55.05;30.15;;;;;;;4.47;100;94639.09;;;;
2019/11/26 01:50:06;;;;;;;0;0;;;;;;;0;0;0;;;;
2019/11/26 01:51:14;;;;;;;0;0;;;;;;;0;0;0;;;;
2019/11/26 01:52:19;;;;;;;0;0;;;;;;;0;0;0;;;;
2019/11/26 01:53:20;;;;;;;0;0;;;;;;;0;0;0;;;;
2019/11/26 01:57:28;;;;;;;0;0;;;;;;;0;0;0;;;;
2019/11/26 02:07:30;;;;;;;0;0;;;;;;;0;0;0;;;;
2019/11/26 02:13:43;;;;;;;0;0;;;;;;;0;0;0;;;;
2019/11/26 02:14:44;;;;;;;0;0;;;;;;;0;0;0;;;;
2019/11/26 02:16:52;;;;;;;0;0;;;;;;;0;0;0;;;;
2019/11/26 02:17:53;;;;;;;0;0;;;;;;;0;0;0;;;;
2019/11/26 02:19:56;;;;;;;0;0;;;;;;;0;0;0;;;;
2019/11/26 02:20:57;;;;;;;0;0;;;;;;;0;0;0;;;;
2019/11/26 02:28:19;;;;;;;0;0;;;;;;;0;0;0;;;;
2019/11/26 02:29:23;;;;;;;0;0;;;;;;;0;0;0;;;;
2019/11/26 02:30:24;;;;;;;0;0;;;;;;;0;0;0;;;;
2019/11/26 02:31:25;;;;;;;0;0;;;;;;;0;0;0;;;;
2019/11/26 02:32:27;;;;;;;0;0;;;;;;;0;0;0;;;;
2019/11/26 02:33:28;;;;;;;0;0;;;;;;;0;0;0;;;;
2019/11/26 02:34:29;;;;;;;0;0;;;;;;;0;0;0;;;;
2019/11/26 02:35:30;;;;;;;0;0;;;;;;;0;0;0;;;;
2019/11/26 02:36:32;;;;;;;0;0;;;;;;;0;0;0;;;;
2019/11/26 02:37:33;;;;;;;0;0;;;;;;;0;0;0;;;;
2019/11/26 02:38:34;;;;;;;0;0;;;;;;;0;0;0;;;;
2019/11/26 02:39:36;;;;;;;0;0;;;;;;;0;0;0;;;;
2019/11/26 02:40:37;;;;;;;0;0;;;;;;;0;0;0;;;;
2019/11/26 02:41:43;;;;;;;0;0;;;;;;;0;0;0;;;;
2019/11/26 02:42:46;;;;;;;0;0;;;;;;;0;0;0;;;;
2019/11/26 02:48:42;;;;;;;0;0;;;;;;;0;0;0;;;;
2019/11/26 02:50:41;;;;;;;0;0;;;;;;;0;0;0;;;;
2019/11/26 02:58:33;;;;;;;0;0;;;;;;;0;0;0;;;;
2019/11/26 02:59:34;;;;;;;0;0;;;;;;;0;0;0;;;;
2019/11/26 03:00:35;;;;;;;0;0;;;;;;;0;0;0;;;;
2019/11/26 03:01:37;;;;;;;0;0;;;;;;;0;0;0;;;;
2019/11/26 03:02:38;;;;;;;0;0;;;;;;;0;0;0;;;;
2019/11/26 03:03:40;;;;;;;0;0;;;;;;;0;0;0;;;;
2019/11/26 03:04:41;;;;;;;0;0;;;;;;;0;0;0;;;;
2019/11/26 03:05:42;;;;;;;0;0;;;;;;;0;0;0;;;;
2019/11/26 03:06:43;;;;;;;0;0;;;;;;;0;0;0;;;;
2019/11/26 03:07:44;;;;;;;0;0;;;;;;;0;0;0;;;;
2019/11/26 03:09:20;;;;;;;0;0;;;;;;;0;0;0;;;;
2019/11/26 03:11:58;;;;;;;0;0;;;;;;;0;0;0;;;;
2019/11/26 03:13:00;;;;;;;0;0;;;;;;;0;0;0;;;;
2019/11/26 03:15:21;;;;;;;0;0;;;;;;;0;0;0;;;;
2019/11/26 03:16:23;;;;;;;0;0;;;;;;;0;0;0;;;;
2019/11/26 03:17:24;;;;;;;0;0;;;;;;;0;0;0;;;;
2019/11/26 03:18:54;;;;;;;0;0;;;;;;;0;0;0;;;;
2019/11/26 03:19:56;;;;;;;0;0;;;;;;;0;0;0;;;;
2019/11/26 03:21:54;;;;;;;0;0;;;;;;;0;0;0;;;;
2019/11/26 03:22:56;;;;;;;0;0;;;;;;;0;0;0;;;;
2019/11/26 03:24:06;;;;;;;0;0;;;;;;;0;0;0;;;;
2019/11/26 03:25:07;;;;;;;0;0;;;;;;;0;0;0;;;;
2019/11/26 03:26:09;;;;;;;0;0;;;;;;;0;0;0;;;;
2019/11/26 03:27:10;;;;;;;0;0;;;;;;;0;0;0;;;;
2019/11/26 03:28:11;;;;;;;0;0;;;;;;;0;0;0;;;;
2019/11/26 03:29:12;;;;;;;0;0;;;;;;;0;0;0;;;;
2019/11/26 03:30:13;;;;;;;0;0;;;;;;;0;0;0;;;;
2019/11/26 03:31:14;;;;;;;0;0;;;;;;;0;0;0;;;;
2019/11/26 03:32:16;;;;;;;0;0;;;;;;;0;0;0;;;;
2019/11/26 03:33:17;;;;;;;0;0;;;;;;;0;0;0;;;;
2019/11/26 03:34:18;;;;;;;0;0;;;;;;;0;0;0;;;;
2019/11/26 03:35:19;;;;;;;0;0;;;;;;;0;0;0;;;;
2019/11/26 03:36:20;;;;;;;0;0;;;;;;;0;0;0;;;;
2019/11/26 03:37:21;;;;;;;0;0;;;;;;;0;0;0;;;;
2019/11/26 03:38:22;;;;;;;0;0;;;;;;;0;0;0;;;;
2019/11/26 03:39:23;;;;;;;0;0;;;;;;;0;0;0;;;;
2019/11/26 03:40:24;;;;;;;0;0;;;;;;;0;0;0;;;;
2019/11/26 03:41:29;;;;;;;0;0;;;;;;;0;0;0;;;;
2019/11/26 03:42:30;;;;;;;0;0;;;;;;;0;0;0;;;;
2019/11/26 03:43:31;;;;;;;0;0;;;;;;;0;0;0;;;;
2019/11/26 03:44:39;;;;;;;0;0;;;;;;;0;0;0;;;;
2019/11/26 03:45:44;;;;;;;0;0;;;;;;;0;0;0;;;;
2019/11/26 03:50:36;;;;;;;0;0;;;;;;;0;0;0;;;;
2019/11/26 03:53:50;;;;;;;0;0;;;;;;;0;0;0;;;;
2019/11/26 04:01:04;;;;;;;0;0;;;;;;;0;0;0;;;;
2019/11/26 04:03:13;;;;;;;0;0;;;;;;;0;0;0;;;;
2019/11/26 04:11:10;;;;;;;0;0;;;;;;;0;0;0;;;;
2019/11/26 04:21:07;;;;;;;0;0;;;;;;;0;0;0;;;;
2019/11/26 04:23:58;;;;;;;0;0;;;;;;;0;0;0;;;;
2019/11/26 04:31:31;;;;;;;0;0;;;;;;;0;0;0;;;;
2019/11/26 04:32:40;;;;;;;0;0;;;;;;;0;0;0;;;;
2019/11/26 04:33:46;;;;;;;0;0;;;;;;;0;0;0;;;;
2019/11/26 04:38:00;;;;;;;0;0;;;;;;;0;0;0;;;;
2019/11/26 04:39:04;;;;;;;0;0;;;;;;;0;0;0;;;;
2019/11/26 04:40:09;;;;;;;0;0;;;;;;;0;0;0;;;;
2019/11/26 04:41:11;;;;;;;0;0;;;;;;;0;0;0;;;;
2019/11/26 04:46:23;;;;;;;0;0;;;;;;;0;0;0;;;;
2019/11/26 04:47:24;;;;;;;0;0;;;;;;;0;0;0;;;;
2019/11/26 04:48:26;;;;;;;0;0;;;;;;;0;0;0;;;;
2019/11/26 04:49:43;;;;;;;0;0;;;;;;;0;0;0;;;;
2019/11/26 04:50:45;;;;;;;0;0;;;;;;;0;0;0;;;;
2019/11/26 04:51:54;;;;;;;0;0;;;;;;;0;0;0;;;;
2019/11/26 04:54:34;;;;;;;0;0;;;;;;;0;0;0;;;;
2019/11/26 04:56:11;;;;;;;0;0;;;;;;;0;0;0;;;;
2019/11/26 04:57:12;;;;;;;0;0;;;;;;;0;0;0;;;;
2019/11/26 04:58:13;;;;;;;0;0;;;;;;;0;0;0;;;;
2019/11/26 04:59:15;;;;;;;0;0;;;;;;;0;0;0;;;;
2019/11/26 05:00:16;;;;;;;0;0;;;;;;;0;0;0;;;;
2019/11/26 05:01:17;;;;;;;0;0;;;;;;;0;0;0;;;;
2019/11/26 05:02:18;;;;;;;0;0;;;;;;;0;0;0;;;;
2019/11/26 05:03:19;;;;;;;0;0;;;;;;;0;0;0;;;;
2019/11/26 05:04:20;;;;;;;0;0;;;;;;;0;0;0;;;;
2019/11/26 05:05:21;;;;;;;0;0;;;;;;;0;0;0;;;;
2019/11/26 05:06:23;;;;;;;0;0;;;;;;;0;0;0;;;;
2019/11/26 05:07:24;;;;;;;0;0;;;;;;;0;0;0;;;;
2019/11/26 05:08:25;;;;;;;0;0;;;;;;;0;0;0;;;;
2019/11/26 05:09:27;;;;;;;0;0;;;;;;;0;0;0;;;;
2019/11/26 05:10:28;;;;;;;0;0;;;;;;;0;0;0;;;;
2019/11/26 05:11:29;;;;;;;0;0;;;;;;;0;0;0;;;;
2019/11/26 05:12:30;;;;;;;0;0;;;;;;;0;0;0;;;;
2019/11/26 05:13:32;;;;;;;0;0;;;;;;;0;0;0;;;;
2019/11/26 05:14:34;;;;;;;0;0;;;;;;;0;0;0;;;;
2019/11/26 05:15:37;;;;;;;0;0;;;;;;;0;0;0;;;;
2019/11/26 05:16:38;;;;;;;0;0;;;;;;;0;0;0;;;;
2019/11/26 05:17:39;;;;;;;0;0;;;;;;;0;0;0;;;;
2019/11/26 05:18:40;;;;;;;0;0;;;;;;;0;0;0;;;;
2019/11/26 05:19:41;;;;;;;0;0;;;;;;;0;0;0;;;;
2019/11/26 05:20:42;;;;;;;0;0;;;;;;;0;0;0;;;;
2019/11/26 05:21:44;;;;;;;0;0;;;;;;;0;0;0;;;;
2019/11/26 05:22:45;;;;;;;0;0;;;;;;;0;0;0;;;;
2019/11/26 05:23:50;;;;;;;0;0;;;;;;;0;0;0;;;;
2019/11/26 05:25:52;;;;;;;0;0;;;;;;;0;0;0;;;;
2019/11/26 05:31:13;;;;;;;0;0;;;;;;;0;0;0;;;;
2019/11/26 05:35:43;;;;;;;0;0;;;;;;;0;0;0;;;;
2019/11/26 05:40:05;;;;;;;0;0;;;;;;;0;0;0;;;;
2019/11/26 05:49:16;;;;;;;0;0;;;;;;;0;0;0;;;;
2019/11/26 05:51:37;;;;;;;0;0;;;;;;;0;0;0;;;;
2019/11/26 05:56:24;;;;;;;0;0;;;;;;;0;0;0;;;;
2019/11/26 06:02:46;;;;;;;0;0;;;;;;;0;0;0;;;;
2019/11/26 06:12:02;;;;;;;0;0;;;;;;;0;0;0;;;;
2019/11/26 06:17:02;;;;;;;0;0;;;;;;;0;0;0;;;;
2019/11/26 06:22:03;;;;;;;0;0;;;;;;;0;0;0;;;;
2019/11/26 06:27:03;;;;;;;0;0;;;;;;;0;0;0;;;;
2019/11/26 06:30:42;;;;;;;0;0;;;;;;;0;0;0;;;;
2019/11/26 06:31:48;;;;;;;0;0;;;;;;;0;0;0;;;;
2019/11/26 06:34:02;;;;;;;0;0;;;;;;;0;0;0;;;;
2019/11/26 06:41:28;;;;;;;0;0;;;;;;;0;0;0;;;;
2019/11/26 06:45:18;;;;;;;0;0;;;;;;;0;0;0;;;;
2019/11/26 06:53:27;;;;;;;0;0;;;;;;;0;0;0;;;;
2019/11/26 06:54:28;;;;;;;0;0;;;;;;;0;0;0;;;;
2019/11/26 06:55:39;;;;;;;0;0;;;;;;;0;0;0;;;;
2019/11/26 06:57:00;;;;;;;0;0;;;;;;;0;0;0;;;;
2019/11/26 06:58:23;;;;;;;0;0;;;;;;;0;0;0;;;;
2019/11/26 06:59:29;;;;;;;0;0;;;;;;;0;0;0;;;;
2019/11/26 07:00:34;;;;;;;0;0;;;;;;;0;0;0;;;;
2019/11/26 07:01:36;;;;;;;0;0;;;;;;;0;0;0;;;;
2019/11/26 07:02:37;;;;;;;0;0;;;;;;;0;0;0;;;;
2019/11/26 07:03:39;;;;;;;0;0;;;;;;;0;0;0;;;;
2019/11/26 07:04:40;;;;;;;0;0;;;;;;;0;0;0;;;;
2019/11/26 07:05:42;;;;;;;0;0;;;;;;;0;0;0;;;;
2019/11/26 07:07:10;;;;;;;0;0;;;;;;;0;0;0;;;;
2019/11/26 07:08:47;;;;;;;0;0;;;;;;;0;0;0;;;;
2019/11/26 07:10:10;;;;;;;0;0;;;;;;;0;0;0;;;;
2019/11/26 07:11:33;;;;;;;0;0;;;;;;;0;0;0;;;;
2019/11/26 07:12:35;;;;;;;0;0;;;;;;;0;0;0;;;;
2019/11/26 07:13:36;;;;;;;0;0;;;;;;;0;0;0;;;;
2019/11/26 07:14:37;;;;;;;0;0;;;;;;;0;0;0;;;;
2019/11/26 07:15:38;;;;;;;0;0;;;;;;;0;0;0;;;;
2019/11/26 07:16:39;;;;;;;0;0;;;;;;;0;0;0;;;;
2019/11/26 07:17:40;;;;;;;0;0;;;;;;;0;0;0;;;;
2019/11/26 07:18:42;;;;;;;0;0;;;;;;;0;0;0;;;;
2019/11/26 07:19:43;;;;;;;0;0;;;;;;;0;0;0;;;;
2019/11/26 07:20:44;;;;;;;0;0;;;;;;;0;0;0;;;;
2019/11/26 07:21:45;;;;;;;0;0;;;;;;;0;0;0;;;;
2019/11/26 07:22:46;;;;;;;0;0;;;;;;;0;0;0;;;;
2019/11/26 07:23:47;;;;;;;0;0;;;;;;;0;0;0;;;;
2019/11/26 07:24:49;;;;;;;0;0;;;;;;;0;0;0;;;;
2019/11/26 07:25:50;;;;;;;0;0;;;;;;;0;0;0;;;;
2019/11/26 07:26:51;;;;;;;0;0;;;;;;;0;0;0;;;;
2019/11/26 07:27:52;;;;;;;0;0;;;;;;;0;0;0;;;;
2019/11/26 07:28:53;;;;;;;0;0;;;;;;;0;0;0;;;;
2019/11/26 07:29:54;;;;;;;0;0;;;;;;;0;0;0;;;;
2019/11/26 07:30:55;;;;;;;0;0;;;;;;;0;0;0;;;;
2019/11/26 07:31:58;;;;;;;0;0;;;;;;;0;0;0;;;;
2019/11/26 07:32:59;;;;;;;0;0;;;;;;;0;0;0;;;;
2019/11/26 07:34:01;;;;;;;0;0;;;;;;;0;0;0;;;;
2019/11/26 07:35:02;;;;;;;0;0;;;;;;;0;0;0;;;;
2019/11/26 07:36:03;;;;;;;0;0;;;;;;;0;0;0;;;;
2019/11/26 07:37:04;;;;;;;0;0;;;;;;;0;0;0;;;;
2019/11/26 07:38:06;;;;;;;0;0;;;;;;;0;0;0;;;;
2019/11/26 07:39:07;;;;;;;0;0;;;;;;;0;0;0;;;;
2019/11/26 07:40:08;;;;;;;0;0;;;;;;;0;0;0;;;;
2019/11/26 07:41:09;;;;;;;0;0;;;;;;;0;0;0;;;;
2019/11/26 07:42:10;;;;;;;0;0;;;;;;;0;0;0;;;;
2019/11/26 07:43:12;;;;;;;0;0;;;;;;;0;0;0;;;;
2019/11/26 07:44:13;;;;;;;0;0;;;;;;;0;0;0;;;;
2019/11/26 07:45:14;;;;;;;0;0;;;;;;;0;0;0;;;;
2019/11/26 07:46:15;;;;;;;0;0;;;;;;;0;0;0;;;;
2019/11/26 07:47:16;;;;;;;0;0;;;;;;;0;0;0;;;;
2019/11/26 07:48:17;;;;;;;0;0;;;;;;;0;0;0;;;;
2019/11/26 07:49:19;;;;;;;0;0;;;;;;;0;0;0;;;;
2019/11/26 07:50:20;;;;;;;0;0;;;;;;;0;0;0;;;;
2019/11/26 07:51:21;;;;;;;0;0;;;;;;;0;0;0;;;;
2019/11/26 07:52:22;;;;;;;0;0;;;;;;;0;0;0;;;;
2019/11/26 07:53:24;;;;;;;0;0;;;;;;;0;0;0;;;;
2019/11/26 07:54:25;;;;;;;0;0;;;;;;;0;0;0;;;;
2019/11/26 07:55:26;;;;;;;0;0;;;;;;;0;0;0;;;;
2019/11/26 07:56:27;;;;;;;0;0;;;;;;;0;0;0;;;;
2019/11/26 07:57:28;;;;;;;0;0;;;;;;;0;0;0;;;;
2019/11/26 07:58:30;;;;;;;0;0;;;;;;;0;0;0;;;;
2019/11/26 07:59:31;;;;;;;0;0;;;;;;;0;0;0;;;;
2019/11/26 08:00:32;;;;;;;0;0;;;;;;;0;0;0;;;;
2019/11/26 08:01:33;;;;;;;0;0;;;;;;;0;0;0;;;;
2019/11/26 08:02:34;;;;;;;0;0;;;;;;;0;0;0;;;;
2019/11/26 08:03:35;;;;;;;0;0;;;;;;;0;0;0;;;;
2019/11/26 08:04:36;;;;;;;0;0;;;;;;;0;0;0;;;;
2019/11/26 08:05:38;;;;;;;0;0;;;;;;;0;0;0;;;;
2019/11/26 08:06:39;;;;;;;0;0;;;;;;;0;0;0;;;;
2019/11/26 08:07:40;;;;;;;0;0;;;;;;;0;0;0;;;;
2019/11/26 08:08:41;;;;;;;0;0;;;;;;;0;0;0;;;;
2019/11/26 08:09:44;;;;;;;0;0;;;;;;;0;0;0;;;;
2019/11/26 08:10:59;;;;;;;0;0;;;;;;;0;0;0;;;;
2019/11/26 08:12:05;;;;;;;0;0;;;;;;;0;0;0;;;;
2019/11/26 08:13:07;;;;;;;14.75;12.1;;;;;;;7;98.91992;94631.3;;;;
2019/11/26 08:14:08;;;;;;;14.75;12.1;;;;;;;7;98.91992;94631.3;;;;
2019/11/26 08:15:09;;;;;;;14.75;12.1;;;;;;;7;98.91992;94631.3;;;;
2019/11/26 08:16:10;;;;;;;14.75;12.1;;;;;;;7;98.91992;94631.3;;;;
2019/11/26 08:17:11;;;;;;;14.75;12.1;;;;;;;7;98.91992;94631.3;;;;
2019/11/26 08:18:13;;;;;;;14.75;12.1;;;;;;;7;98.91992;94631.3;;;;
2019/11/26 08:19:14;;;;;;;14.75;12.1;;;;;;;7;98.91992;94631.3;;;;
2019/11/26 08:20:15;;;;;;;14.75;12.1;;;;;;;7;98.91992;94631.3;;;;
2019/11/26 08:21:16;;;;;;;14.75;12.1;;;;;;;7;98.91992;94631.3;;;;
2019/11/26 08:22:17;;;;;;;14.75;12.1;;;;;;;7;98.91992;94631.3;;;;
2019/11/26 08:23:18;;;;;;;12.4;11.15;;;;;;;7.9;97.86719;94630.38;;;;
2019/11/26 08:24:19;;;;;;;12.4;11.15;;;;;;;7.9;97.86719;94630.38;;;;
2019/11/26 08:26:28;;;;;;;12.4;11.15;;;;;;;7.9;97.86719;94630.38;;;;
2019/11/26 08:27:29;;;;;;;12.4;11.15;;;;;;;7.9;97.86719;94630.38;;;;
2019/11/26 08:28:30;;;;;;;12.4;11.15;;;;;;;7.9;97.86719;94630.38;;;;
2019/11/26 08:36:08;;;;;;;11.1;9.75;;;;;;;7.87;98.9248;94620.62;;;;
2019/11/26 08:37:09;;;;;;;11.1;9.75;;;;;;;7.87;98.9248;94620.62;;;;
2019/11/26 08:46:24;;;;;;;12.5;11;;;;;;;8.28;99.09277;94601.62;;;;
2019/11/26 08:47:25;;;;;;;12.5;11;;;;;;;8.28;99.09277;94601.62;;;;
2019/11/26 08:53:31;;;;;;;12.5;11;;;;;;;8.28;99.09277;94601.62;;;;
2019/11/26 08:54:32;;;;;;;12.5;11;;;;;;;8.28;99.09277;94601.62;;;;
2019/11/26 08:55:33;;;;;;;10.35;9.3;;;;;;;11.41;92.80469;94597.02;;;;
2019/11/26 08:56:34;;;;;;;10.35;9.3;;;;;;;11.41;92.80469;94597.02;;;;
2019/11/26 08:57:35;;;;;;;10.35;9.3;;;;;;;11.41;92.80469;94597.02;;;;
2019/11/26 08:58:37;;;;;;;10.35;9.3;;;;;;;11.41;92.80469;94597.02;;;;
2019/11/26 08:59:40;;;;;;;10.35;9.3;;;;;;;11.41;92.80469;94597.02;;;;
2019/11/26 09:00:41;;;;;;;10.35;9.3;;;;;;;11.41;92.80469;94597.02;;;;
2019/11/26 09:01:42;;;;;;;10.35;9.3;;;;;;;11.41;92.80469;94597.02;;;;
2019/11/26 09:02:43;;;;;;;10.35;9.3;;;;;;;11.41;92.80469;94597.02;;;;
2019/11/26 09:03:45;;;;;;;10.35;9.3;;;;;;;11.41;92.80469;94597.02;;;;
2019/11/26 09:05:25;;;;;;;9.95;8.699999;;;;;;;15.4;85.53906;94604.72;;;;
2019/11/26 09:06:43;;;;;;;9.95;8.699999;;;;;;;15.4;85.53906;94604.72;;;;
2019/11/26 09:15:58;;;;;;;9.150001;8.050001;;;;;;;14.78;89.13379;94602.19;;;;
2019/11/26 09:19:28;;;;;;;9.150001;8.050001;;;;;;;14.78;89.13379;94602.19;;;;
2019/11/26 09:23:26;;;;;;;9.150001;8.050001;;;;;;;14.78;89.13379;94602.19;;;;
2019/11/26 09:24:27;;;;;;;9.150001;8.050001;;;;;;;14.78;89.13379;94602.19;;;;
2019/11/26 09:25:28;;;;;;;9.150001;8.050001;;;;;;;14.78;89.13379;94602.19;;;;
2019/11/26 09:26:30;;;;;;;8.75;7.95;;;;;;;14.38;91.10352;94596.89;;;;
2019/11/26 09:27:32;;;;;;;8.75;7.95;;;;;;;14.38;91.10352;94596.89;;;;
2019/11/26 09:28:39;;;;;;;8.75;7.95;;;;;;;14.38;91.10352;94596.89;;;;
2019/11/26 09:29:40;;;;;;;8.75;7.95;;;;;;;14.38;91.10352;94596.89;;;;
2019/11/26 09:30:41;;;;;;;8.75;7.95;;;;;;;14.38;91.10352;94596.89;;;;
2019/11/26 09:31:42;;;;;;;8.75;7.95;;;;;;;14.38;91.10352;94596.89;;;;
2019/11/26 09:32:43;;;;;;;8.75;7.95;;;;;;;14.38;91.10352;94596.89;;;;
2019/11/26 09:33:49;;;;;;;8.75;7.95;;;;;;;14.38;91.10352;94596.89;;;;
2019/11/26 09:34:51;;;;;;;8.75;7.95;;;;;;;14.38;91.10352;94596.89;;;;
2019/11/26 09:35:52;;;;;;;8.75;7.95;;;;;;;14.38;91.10352;94596.89;;;;
2019/11/26 09:36:55;;;;;;;8.75;7.95;;;;;;;14.38;91.10352;94596.89;;;;
2019/11/26 09:38:55;;;;;;;9.850001;8.85;;;;;;;15.14;89.31152;94593.3;;;;
2019/11/26 09:39:57;;;;;;;9.850001;8.85;;;;;;;15.14;89.31152;94593.3;;;;
2019/11/26 09:44:38;;;;;;;9.850001;8.85;;;;;;;15.14;89.31152;94593.3;;;;
2019/11/26 09:45:39;;;;;;;9.850001;8.85;;;;;;;15.14;89.31152;94593.3;;;;
2019/11/26 09:46:40;;;;;;;9.850001;8.85;;;;;;;15.14;89.31152;94593.3;;;;
2019/11/26 09:47:43;;;;;;;10.45;8.75;;;;;;;16.63;85.96094;94595.08;;;;
2019/11/26 09:48:44;;;;;;;10.45;8.75;;;;;;;16.63;85.96094;94595.08;;;;
2019/11/26 09:50:06;;;;;;;10.45;8.75;;;;;;;16.63;85.96094;94595.08;;;;
2019/11/26 09:51:08;;;;;;;10.45;8.75;;;;;;;16.63;85.96094;94595.08;;;;
2019/11/26 09:56:16;;;;;;;10.45;8.75;;;;;;;16.63;85.96094;94595.08;;;;
2019/11/26 09:57:17;;;;;;;10.45;8.75;;;;;;;16.63;85.96094;94595.08;;;;
2019/11/26 09:58:18;;;;;;;9.550001;8.5;;;;;;;17.49;84.23145;94590.28;;;;
2019/11/26 09:59:19;;;;;;;9.550001;8.5;;;;;;;17.49;84.23145;94590.28;;;;
2019/11/26 10:00:21;;;;;;;9.550001;8.5;;;;;;;17.49;84.23145;94590.28;;;;
2019/11/26 10:01:22;;;;;;;9.550001;8.5;;;;;;;17.49;84.23145;94590.28;;;;
2019/11/26 10:02:23;;;;;;;9.550001;8.5;;;;;;;17.49;84.23145;94590.28;;;;
2019/11/26 10:03:24;;;;;;;9.550001;8.5;;;;;;;17.49;84.23145;94590.28;;;;
2019/11/26 10:04:53;;;;;;;9.550001;8.5;;;;;;;17.49;84.23145;94590.28;;;;
2019/11/26 10:05:54;;;;;;;9.550001;8.5;;;;;;;17.49;84.23145;94590.28;;;;
2019/11/26 10:06:56;;;;;;;9.550001;8.5;;;;;;;17.49;84.23145;94590.28;;;;
2019/11/26 10:07:57;;;;;;;9.550001;8.5;;;;;;;17.49;84.23145;94590.28;;;;
2019/11/26 10:08:58;;;;;;;9.449999;8.449999;;;;;;;20.87;77.12891;94578.72;;;;
2019/11/26 10:09:59;;;;;;;9.449999;8.449999;;;;;;;20.87;77.12891;94578.72;;;;
2019/11/26 10:11:59;;;;;;;9.449999;8.449999;;;;;;;20.87;77.12891;94578.72;;;;
2019/11/26 10:13:00;;;;;;;9.449999;8.449999;;;;;;;20.87;77.12891;94578.72;;;;
2019/11/26 10:14:03;;;;;;;9.449999;8.449999;;;;;;;20.87;77.12891;94578.72;;;;
2019/11/26 10:15:05;;;;;;;9.449999;8.449999;;;;;;;20.87;77.12891;94578.72;;;;
2019/11/26 10:16:06;;;;;;;9.449999;8.449999;;;;;;;20.87;77.12891;94578.72;;;;
2019/11/26 10:17:07;;;;;;;9.449999;8.449999;;;;;;;20.87;77.12891;94578.72;;;;
2019/11/26 10:18:11;;;;;;;9.449999;8.449999;;;;;;;20.87;77.12891;94578.72;;;;
2019/11/26 10:19:12;;;;;;;9.449999;8.449999;;;;;;;20.87;77.12891;94578.72;;;;
2019/11/26 10:20:20;;;;;;;10.45;9.25;;;;;;;19.1;80.5293;94561.44;;;;
2019/11/26 10:21:22;;;;;;;10.45;9.25;;;;;;;19.1;80.5293;94561.44;;;;
2019/11/26 10:22:23;;;;;;;10.45;9.25;;;;;;;19.1;80.5293;94561.44;;;;
2019/11/26 10:23:24;;;;;;;10.45;9.25;;;;;;;19.1;80.5293;94561.44;;;;
2019/11/26 10:24:25;;;;;;;10.45;9.25;;;;;;;19.1;80.5293;94561.44;;;;
2019/11/26 10:25:27;;;;;;;10.45;9.25;;;;;;;19.1;80.5293;94561.44;;;;
2019/11/26 10:26:28;;;;;;;10.45;9.25;;;;;;;19.1;80.5293;94561.44;;;;
2019/11/26 10:27:29;;;;;;;10.45;9.25;;;;;;;19.1;80.5293;94561.44;;;;
2019/11/26 10:28:30;;;;;;;10.45;9.25;;;;;;;19.1;80.5293;94561.44;;;;
2019/11/26 10:29:31;;;;;;;10.45;9.25;;;;;;;19.1;80.5293;94561.44;;;;
2019/11/26 10:30:33;;;;;;;10.65;9.65;;;;;;;18.93;79.80176;94545.23;;;;
2019/11/26 10:31:34;;;;;;;10.65;9.65;;;;;;;18.93;79.80176;94545.23;;;;
2019/11/26 10:32:35;;;;;;;10.65;9.65;;;;;;;18.93;79.80176;94545.23;;;;
2019/11/26 10:33:37;;;;;;;10.65;9.65;;;;;;;18.93;79.80176;94545.23;;;;
2019/11/26 10:34:38;;;;;;;10.65;9.65;;;;;;;18.93;79.80176;94545.23;;;;
2019/11/26 10:35:39;;;;;;;10.65;9.65;;;;;;;18.93;79.80176;94545.23;;;;
2019/11/26 10:36:43;;;;;;;10.65;9.65;;;;;;;18.93;79.80176;94545.23;;;;
2019/11/26 10:41:47;;;;;;;9.650001;8.75;;;;;;;20.87;74.79688;94554.43;;;;
2019/11/26 10:42:49;;;;;;;9.650001;8.75;;;;;;;20.87;74.79688;94554.43;;;;
2019/11/26 10:46:09;;;;;;;9.650001;8.75;;;;;;;20.87;74.79688;94554.43;;;;
2019/11/26 10:48:06;;;;;;;9.650001;8.75;;;;;;;20.87;74.79688;94554.43;;;;
2019/11/26 10:49:07;;;;;;;9.650001;8.75;;;;;;;20.87;74.79688;94554.43;;;;
2019/11/26 10:50:48;;;;;;;9.650001;8.75;;;;;;;20.87;74.79688;94554.43;;;;
2019/11/26 10:52:02;;;;;;;9.6;8.700001;;;;;;;19.46;76.0459;94537.25;;;;
2019/11/26 10:53:07;;;;;;;9.6;8.700001;;;;;;;19.46;76.0459;94537.25;;;;
2019/11/26 10:54:24;;;;;;;9.6;8.700001;;;;;;;19.46;76.0459;94537.25;;;;
2019/11/26 10:55:25;;;;;;;9.6;8.700001;;;;;;;19.46;76.0459;94537.25;;;;
2019/11/26 10:56:27;;;;;;;9.6;8.700001;;;;;;;19.46;76.0459;94537.25;;;;
2019/11/26 10:57:41;;;;;;;9.6;8.700001;;;;;;;19.46;76.0459;94537.25;;;;
2019/11/26 10:58:42;;;;;;;9.6;8.700001;;;;;;;19.46;76.0459;94537.25;;;;
2019/11/26 10:59:43;;;;;;;9.6;8.700001;;;;;;;19.46;76.0459;94537.25;;;;
2019/11/26 11:00:44;;;;;;;9.6;8.700001;;;;;;;19.46;76.0459;94537.25;;;;
2019/11/26 11:01:45;;;;;;;9.6;8.700001;;;;;;;19.46;76.0459;94537.25;;;;
2019/11/26 11:02:46;;;;;;;9.95;8.9;;;;;;;17.81;78.05957;94529.86;;;;
2019/11/26 11:03:47;;;;;;;9.95;8.9;;;;;;;17.81;78.05957;94529.86;;;;
2019/11/26 11:05:03;;;;;;;9.95;8.9;;;;;;;17.81;78.05957;94529.86;;;;
2019/11/26 11:07:10;;;;;;;9.95;8.9;;;;;;;17.81;78.05957;94529.86;;;;
2019/11/26 11:08:15;;;;;;;9.95;8.9;;;;;;;17.81;78.05957;94529.86;;;;
2019/11/26 11:10:31;;;;;;;9.95;8.9;;;;;;;17.81;78.05957;94529.86;;;;
2019/11/26 11:11:32;;;;;;;9.95;8.9;;;;;;;17.81;78.05957;94529.86;;;;
2019/11/26 11:12:41;;;;;;;9.8;8.199999;;;;;;;18.52;75.25488;94516.96;;;;
2019/11/26 11:13:49;;;;;;;9.8;8.199999;;;;;;;18.52;75.25488;94516.96;;;;
2019/11/26 11:14:50;;;;;;;9.8;8.199999;;;;;;;18.52;75.25488;94516.96;;;;
2019/11/26 11:15:51;;;;;;;9.8;8.199999;;;;;;;18.52;75.25488;94516.96;;;;
2019/11/26 11:16:53;;;;;;;9.8;8.199999;;;;;;;18.52;75.25488;94516.96;;;;
2019/11/26 11:18:16;;;;;;;9.8;8.199999;;;;;;;18.52;75.25488;94516.96;;;;
2019/11/26 11:19:21;;;;;;;9.8;8.199999;;;;;;;18.52;75.25488;94516.96;;;;
2019/11/26 11:20:22;;;;;;;9.8;8.199999;;;;;;;18.52;75.25488;94516.96;;;;
2019/11/26 11:21:25;;;;;;;9.8;8.199999;;;;;;;18.52;75.25488;94516.96;;;;
2019/11/26 11:22:26;;;;;;;9.8;8.199999;;;;;;;18.52;75.25488;94516.96;;;;
2019/11/26 11:23:27;;;;;;;10.05;8.749998;;;;;;;20.36;70.69434;94491.55;;;;
2019/11/26 11:25:32;;;;;;;10.05;8.749998;;;;;;;20.36;70.69434;94491.55;;;;
2019/11/26 11:26:37;;;;;;;10.05;8.749998;;;;;;;20.36;70.69434;94491.55;;;;
2019/11/26 11:27:39;;;;;;;10.05;8.749998;;;;;;;20.36;70.69434;94491.55;;;;
2019/11/26 11:28:41;;;;;;;10.05;8.749998;;;;;;;20.36;70.69434;94491.55;;;;
2019/11/26 11:37:56;;;;;;;8.75;7.9;;;;;;;21.62;69.2002;94487.39;;;;
2019/11/26 11:43:04;;;;;;;8.75;7.9;;;;;;;21.62;69.2002;94487.39;;;;
2019/11/26 11:44:05;;;;;;;8.75;7.9;;;;;;;21.62;69.2002;94487.39;;;;
2019/11/26 11:45:06;;;;;;;9.049999;8.15;;;;;;;21.66;68.18555;94461.67;;;;
2019/11/26 11:46:07;;;;;;;9.049999;8.15;;;;;;;21.66;68.18555;94461.67;;;;
2019/11/26 11:47:09;;;;;;;9.049999;8.15;;;;;;;21.66;68.18555;94461.67;;;;
2019/11/26 11:48:10;;;;;;;9.049999;8.15;;;;;;;21.66;68.18555;94461.67;;;;
2019/11/26 11:49:11;;;;;;;9.049999;8.15;;;;;;;21.66;68.18555;94461.67;;;;
2019/11/26 11:50:13;;;;;;;9.049999;8.15;;;;;;;21.66;68.18555;94461.67;;;;
2019/11/26 11:59:13;;;;;;;7.8;7;;;;;;;21.69;66.13281;94460.24;;;;
2019/11/26 12:00:47;;;;;;;7.8;7;;;;;;;21.69;66.13281;94460.24;;;;
2019/11/26 12:01:49;;;;;;;7.8;7;;;;;;;21.69;66.13281;94460.24;;;;
2019/11/26 12:04:40;;;;;;;7.8;7;;;;;;;21.69;66.13281;94460.24;;;;
2019/11/26 12:05:41;;;;;;;8.000001;7.2;;;;;;;21.41;64.50781;94447.8;;;;
2019/11/26 12:06:42;;;;;;;8.000001;7.2;;;;;;;21.41;64.50781;94447.8;;;;
2019/11/26 12:07:43;;;;;;;8.000001;7.2;;;;;;;21.41;64.50781;94447.8;;;;
2019/11/26 12:08:45;;;;;;;8.000001;7.2;;;;;;;21.41;64.50781;94447.8;;;;
2019/11/26 12:09:46;;;;;;;8.000001;7.2;;;;;;;21.41;64.50781;94447.8;;;;
2019/11/26 12:10:47;;;;;;;8.000001;7.2;;;;;;;21.41;64.50781;94447.8;;;;
2019/11/26 12:11:48;;;;;;;8.000001;7.2;;;;;;;21.41;64.50781;94447.8;;;;
2019/11/26 12:12:50;;;;;;;8.000001;7.2;;;;;;;21.41;64.50781;94447.8;;;;
2019/11/26 12:13:52;;;;;;;8.000001;7.2;;;;;;;21.41;64.50781;94447.8;;;;
2019/11/26 12:14:53;;;;;;;8.000001;7.2;;;;;;;21.41;64.50781;94447.8;;;;
2019/11/26 12:15:54;;;;;;;8.000001;7.2;;;;;;;21.41;64.50781;94447.8;;;;
2019/11/26 12:16:55;;;;;;;7.95;7.1;;;;;;;19.98;65.23438;94438.69;;;;
2019/11/26 12:17:56;;;;;;;7.95;7.1;;;;;;;19.98;65.23438;94438.69;;;;
2019/11/26 12:18:57;;;;;;;7.95;7.1;;;;;;;19.98;65.23438;94438.69;;;;